sensor_id;sensor_type;location;lat;lon;timestamp;pressure;altitude;pressure_sealevel;temperature;humidity
74613;BME280;63119;51.788;8.824;2022-11-20T00:01:22;99764.81;;;-3.53;79.45
74613;BME280;63119;51.788;8.824;2022-11-20T00:03:47;99762.28;;;-3.56;79.35
74613;BME280;63119;51.788;8.824;2022-11-20T00:06:16;99769.19;;;-3.57;79.24
74613;BME280;63119;51.788;8.824;2022-11-20T00:08:41;99754.53;;;-3.58;78.91
74613;BME280;63119;51.788;8.824;2022-11-20T00:11:09;99750.94;;;-3.49;79.17
74613;BME280;63119;51.788;8.824;2022-11-20T00:13:35;99764.09;;;-3.63;79.84
74613;BME280;63119;51.788;8.824;2022-11-20T00:16:02;99761.59;;;-3.69;79.88
74613;BME280;63119;51.788;8.824;2022-11-20T00:18:28;99758.38;;;-3.83;79.88
74613;BME280;63119;51.788;8.824;2022-11-20T00:21:00;99752.16;;;-3.73;80.15
74613;BME280;63119;51.788;8.824;2022-11-20T00:23:26;99750.44;;;-3.71;79.92
74613;BME280;63119;51.788;8.824;2022-11-20T00:25:51;99748.72;;;-3.73;79.67
74613;BME280;63119;51.788;8.824;2022-11-20T00:28:16;99741.19;;;-3.89;79.90
74613;BME280;63119;51.788;8.824;2022-11-20T00:30:42;99747.13;;;-3.82;79.06
74613;BME280;63119;51.788;8.824;2022-11-20T00:33:07;99743.69;;;-3.82;79.96
74613;BME280;63119;51.788;8.824;2022-11-20T00:35:32;99734.19;;;-3.82;80.38
74613;BME280;63119;51.788;8.824;2022-11-20T00:37:57;99736.84;;;-3.85;80.17
74613;BME280;63119;51.788;8.824;2022-11-20T00:40:23;99737.69;;;-3.83;79.81
74613;BME280;63119;51.788;8.824;2022-11-20T00:42:48;99737.50;;;-3.72;79.82
74613;BME280;63119;51.788;8.824;2022-11-20T00:45:13;99734.09;;;-3.74;79.30
74613;BME280;63119;51.788;8.824;2022-11-20T00:47:39;99728.09;;;-3.75;79.84
74613;BME280;63119;51.788;8.824;2022-11-20T00:50:04;99721.16;;;-3.73;79.00
74613;BME280;63119;51.788;8.824;2022-11-20T00:52:29;99714.13;;;-3.63;79.13
74613;BME280;63119;51.788;8.824;2022-11-20T00:54:55;99713.44;;;-3.74;79.27
74613;BME280;63119;51.788;8.824;2022-11-20T00:57:20;99718.59;;;-3.74;79.04
74613;BME280;63119;51.788;8.824;2022-11-20T00:59:45;99714.25;;;-3.71;79.11
74613;BME280;63119;51.788;8.824;2022-11-20T01:02:10;99722.72;;;-3.63;79.00
74613;BME280;63119;51.788;8.824;2022-11-20T01:04:36;99722.78;;;-3.66;78.87
74613;BME280;63119;51.788;8.824;2022-11-20T01:07:01;99726.44;;;-3.82;78.63
74613;BME280;63119;51.788;8.824;2022-11-20T01:09:26;99729.06;;;-3.85;78.79
74613;BME280;63119;51.788;8.824;2022-11-20T01:11:51;99730.72;;;-3.78;78.91
74613;BME280;63119;51.788;8.824;2022-11-20T01:14:19;99727.66;;;-4.07;79.80
74613;BME280;63119;51.788;8.824;2022-11-20T01:16:47;99724.28;;;-4.12;80.43
74613;BME280;63119;51.788;8.824;2022-11-20T01:19:15;99725.19;;;-4.16;80.90
74613;BME280;63119;51.788;8.824;2022-11-20T01:21:43;99722.47;;;-4.06;79.87
74613;BME280;63119;51.788;8.824;2022-11-20T01:24:12;99720.91;;;-4.19;79.88
74613;BME280;63119;51.788;8.824;2022-11-20T01:26:39;99725.09;;;-4.09;79.15
74613;BME280;63119;51.788;8.824;2022-11-20T01:29:06;99720.72;;;-4.02;80.10
74613;BME280;63119;51.788;8.824;2022-11-20T01:31:34;99724.03;;;-3.93;80.34
74613;BME280;63119;51.788;8.824;2022-11-20T01:34:05;99722.94;;;-3.78;79.91
74613;BME280;63119;51.788;8.824;2022-11-20T01:36:32;99717.16;;;-3.94;79.43
74613;BME280;63119;51.788;8.824;2022-11-20T01:39:00;99718.06;;;-3.98;79.21
74613;BME280;63119;51.788;8.824;2022-11-20T01:41:31;99715.72;;;-4.14;79.68
74613;BME280;63119;51.788;8.824;2022-11-20T01:44:18;99711.41;;;-4.15;79.15
74613;BME280;63119;51.788;8.824;2022-11-20T01:46:58;99718.16;;;-4.05;79.07
74613;BME280;63119;51.788;8.824;2022-11-20T01:52:01;99715.47;;;-3.96;80.01
74613;BME280;63119;51.788;8.824;2022-11-20T01:54:55;99720.69;;;-3.99;79.35
74613;BME280;63119;51.788;8.824;2022-11-20T01:57:24;99723.63;;;-4.26;79.41
74613;BME280;63119;51.788;8.824;2022-11-20T02:00:00;99721.16;;;-4.35;79.76
74613;BME280;63119;51.788;8.824;2022-11-20T02:02:27;99720.97;;;-4.22;79.03
74613;BME280;63119;51.788;8.824;2022-11-20T02:04:54;99723.38;;;-4.08;79.18
74613;BME280;63119;51.788;8.824;2022-11-20T02:07:22;99715.63;;;-4.10;79.49
74613;BME280;63119;51.788;8.824;2022-11-20T02:09:48;99719.19;;;-4.17;79.93
74613;BME280;63119;51.788;8.824;2022-11-20T02:12:14;99714.91;;;-4.19;79.07
74613;BME280;63119;51.788;8.824;2022-11-20T02:14:59;99721.78;;;-4.17;79.20
74613;BME280;63119;51.788;8.824;2022-11-20T02:17:25;99713.44;;;-4.38;79.53
74613;BME280;63119;51.788;8.824;2022-11-20T02:19:50;99717.59;;;-4.27;78.77
74613;BME280;63119;51.788;8.824;2022-11-20T02:22:25;99714.91;;;-4.18;80.07
74613;BME280;63119;51.788;8.824;2022-11-20T02:24:53;99718.25;;;-4.13;79.63
74613;BME280;63119;51.788;8.824;2022-11-20T02:27:19;99715.69;;;-4.11;79.63
74613;BME280;63119;51.788;8.824;2022-11-20T02:29:48;99717.47;;;-4.19;79.12
74613;BME280;63119;51.788;8.824;2022-11-20T02:32:23;99718.47;;;-4.26;79.01
74613;BME280;63119;51.788;8.824;2022-11-20T02:34:49;99715.34;;;-4.56;79.72
74613;BME280;63119;51.788;8.824;2022-11-20T02:37:14;99707.59;;;-4.56;80.78
74613;BME280;63119;51.788;8.824;2022-11-20T02:39:41;99708.31;;;-4.42;79.82
74613;BME280;63119;51.788;8.824;2022-11-20T02:42:07;99709.03;;;-4.29;79.48
74613;BME280;63119;51.788;8.824;2022-11-20T02:44:32;99705.50;;;-4.25;78.70
74613;BME280;63119;51.788;8.824;2022-11-20T02:46:58;99699.47;;;-4.25;79.60
74613;BME280;63119;51.788;8.824;2022-11-20T02:49:24;99685.88;;;-4.36;79.82
74613;BME280;63119;51.788;8.824;2022-11-20T02:51:49;99687.81;;;-4.54;79.54
74613;BME280;63119;51.788;8.824;2022-11-20T02:54:14;99678.28;;;-4.49;79.38
74613;BME280;63119;51.788;8.824;2022-11-20T02:56:40;99685.13;;;-4.46;79.18
74613;BME280;63119;51.788;8.824;2022-11-20T02:59:05;99685.97;;;-4.44;78.81
74613;BME280;63119;51.788;8.824;2022-11-20T03:01:31;99687.69;;;-4.45;79.15
74613;BME280;63119;51.788;8.824;2022-11-20T03:03:56;99688.38;;;-4.30;78.99
74613;BME280;63119;51.788;8.824;2022-11-20T03:06:21;99685.69;;;-4.24;78.93
74613;BME280;63119;51.788;8.824;2022-11-20T03:08:47;99679.69;;;-4.23;79.25
74613;BME280;63119;51.788;8.824;2022-11-20T03:11:13;99685.69;;;-4.24;79.07
74613;BME280;63119;51.788;8.824;2022-11-20T03:13:38;99674.56;;;-4.28;78.90
74613;BME280;63119;51.788;8.824;2022-11-20T03:16:15;99669.59;;;-4.42;79.56
74613;BME280;63119;51.788;8.824;2022-11-20T03:18:41;99665.25;;;-4.39;79.71
74613;BME280;63119;51.788;8.824;2022-11-20T03:21:08;99662.75;;;-4.44;79.54
74613;BME280;63119;51.788;8.824;2022-11-20T03:23:33;99659.28;;;-4.45;79.48
74613;BME280;63119;51.788;8.824;2022-11-20T03:26:18;99656.69;;;-4.42;79.92
74613;BME280;63119;51.788;8.824;2022-11-20T03:28:50;99654.81;;;-4.32;79.78
74613;BME280;63119;51.788;8.824;2022-11-20T03:31:17;99650.50;;;-4.31;78.99
74613;BME280;63119;51.788;8.824;2022-11-20T03:33:43;99656.06;;;-4.62;79.06
74613;BME280;63119;51.788;8.824;2022-11-20T03:36:12;99656.16;;;-4.69;79.09
74613;BME280;63119;51.788;8.824;2022-11-20T03:38:38;99657.00;;;-4.66;79.00
74613;BME280;63119;51.788;8.824;2022-11-20T03:41:05;99652.66;;;-4.62;78.80
74613;BME280;63119;51.788;8.824;2022-11-20T03:43:32;99655.25;;;-4.65;79.85
74613;BME280;63119;51.788;8.824;2022-11-20T03:45:58;99654.16;;;-4.48;79.58
74613;BME280;63119;51.788;8.824;2022-11-20T03:48:23;99654.25;;;-4.55;79.20
74613;BME280;63119;51.788;8.824;2022-11-20T03:50:48;99645.75;;;-4.63;79.20
74613;BME280;63119;51.788;8.824;2022-11-20T03:53:14;99651.72;;;-4.58;78.96
74613;BME280;63119;51.788;8.824;2022-11-20T03:55:40;99658.63;;;-4.62;79.34
74613;BME280;63119;51.788;8.824;2022-11-20T03:58:05;99654.44;;;-4.70;79.38
74613;BME280;63119;51.788;8.824;2022-11-20T04:00:30;99651.97;;;-4.78;79.27
74613;BME280;63119;51.788;8.824;2022-11-20T04:02:59;99651.91;;;-4.72;79.37
74613;BME280;63119;51.788;8.824;2022-11-20T04:05:24;99659.09;;;-5.01;79.91
74613;BME280;63119;51.788;8.824;2022-11-20T04:07:50;99663.56;;;-5.15;79.91
74613;BME280;63119;51.788;8.824;2022-11-20T04:10:15;99657.53;;;-5.14;79.89
74613;BME280;63119;51.788;8.824;2022-11-20T04:12:40;99660.16;;;-5.17;80.46
74613;BME280;63119;51.788;8.824;2022-11-20T04:15:06;99670.31;;;-5.04;79.23
74613;BME280;63119;51.788;8.824;2022-11-20T04:17:31;99668.53;;;-4.95;79.03
74613;BME280;63119;51.788;8.824;2022-11-20T04:19:56;99658.97;;;-4.89;79.95
74613;BME280;63119;51.788;8.824;2022-11-20T04:22:22;99667.56;;;-4.87;79.72
74613;BME280;63119;51.788;8.824;2022-11-20T04:24:47;99666.53;;;-4.74;80.20
74613;BME280;63119;51.788;8.824;2022-11-20T04:27:12;99672.50;;;-4.70;79.49
74613;BME280;63119;51.788;8.824;2022-11-20T04:29:37;99663.94;;;-4.74;79.91
74613;BME280;63119;51.788;8.824;2022-11-20T04:32:03;99663.16;;;-4.79;79.43
74613;BME280;63119;51.788;8.824;2022-11-20T04:34:28;99665.69;;;-4.74;79.36
74613;BME280;63119;51.788;8.824;2022-11-20T04:36:53;99663.19;;;-4.80;79.87
74613;BME280;63119;51.788;8.824;2022-11-20T04:39:18;99667.59;;;-4.91;79.83
74613;BME280;63119;51.788;8.824;2022-11-20T04:41:44;99669.28;;;-4.89;79.53
74613;BME280;63119;51.788;8.824;2022-11-20T04:44:09;99666.72;;;-4.92;79.46
74613;BME280;63119;51.788;8.824;2022-11-20T04:46:39;99664.16;;;-4.92;78.99
74613;BME280;63119;51.788;8.824;2022-11-20T04:49:06;99665.19;;;-5.05;79.20
74613;BME280;63119;51.788;8.824;2022-11-20T04:51:32;99657.44;;;-5.05;78.72
74613;BME280;63119;51.788;8.824;2022-11-20T04:53:57;99664.22;;;-4.98;79.08
74613;BME280;63119;51.788;8.824;2022-11-20T04:56:22;99662.75;;;-5.22;79.17
74613;BME280;63119;51.788;8.824;2022-11-20T04:58:48;99657.56;;;-5.17;78.61
74613;BME280;63119;51.788;8.824;2022-11-20T05:01:21;99660.88;;;-5.06;79.65
74613;BME280;63119;51.788;8.824;2022-11-20T05:03:47;99654.69;;;-4.91;79.21
74613;BME280;63119;51.788;8.824;2022-11-20T05:06:14;99654.72;;;-4.94;79.51
74613;BME280;63119;51.788;8.824;2022-11-20T05:08:40;99649.59;;;-4.96;79.36
74613;BME280;63119;51.788;8.824;2022-11-20T05:11:08;99656.47;;;-4.97;79.82
74613;BME280;63119;51.788;8.824;2022-11-20T05:13:34;99661.72;;;-5.03;79.97
74613;BME280;63119;51.788;8.824;2022-11-20T05:16:14;99656.66;;;-5.12;80.02
74613;BME280;63119;51.788;8.824;2022-11-20T05:18:40;99658.44;;;-5.18;80.08
74613;BME280;63119;51.788;8.824;2022-11-20T05:21:06;99665.41;;;-5.26;80.14
74613;BME280;63119;51.788;8.824;2022-11-20T05:23:33;99660.22;;;-5.28;80.17
74613;BME280;63119;51.788;8.824;2022-11-20T05:25:59;99664.53;;;-5.28;79.80
74613;BME280;63119;51.788;8.824;2022-11-20T05:28:25;99665.31;;;-5.17;79.46
74613;BME280;63119;51.788;8.824;2022-11-20T05:30:51;99663.53;;;-5.11;79.65
74613;BME280;63119;51.788;8.824;2022-11-20T05:33:17;99666.97;;;-5.13;79.08
74613;BME280;63119;51.788;8.824;2022-11-20T05:35:42;99665.25;;;-5.13;78.71
74613;BME280;63119;51.788;8.824;2022-11-20T05:38:08;99659.31;;;-5.22;79.44
74613;BME280;63119;51.788;8.824;2022-11-20T05:40:33;99669.56;;;-5.16;78.97
74613;BME280;63119;51.788;8.824;2022-11-20T05:42:59;99662.72;;;-5.17;78.88
74613;BME280;63119;51.788;8.824;2022-11-20T05:45:25;99667.03;;;-5.19;78.90
74613;BME280;63119;51.788;8.824;2022-11-20T05:47:50;99666.13;;;-5.15;78.94
74613;BME280;63119;51.788;8.824;2022-11-20T05:50:15;99666.19;;;-5.21;79.17
74613;BME280;63119;51.788;8.824;2022-11-20T05:52:41;99666.91;;;-5.07;79.32
74613;BME280;63119;51.788;8.824;2022-11-20T05:55:06;99659.06;;;-4.98;78.93
74613;BME280;63119;51.788;8.824;2022-11-20T05:57:32;99657.41;;;-5.02;79.55
74613;BME280;63119;51.788;8.824;2022-11-20T05:59:57;99659.81;;;-4.88;79.56
74613;BME280;63119;51.788;8.824;2022-11-20T06:02:22;99662.38;;;-4.84;79.02
74613;BME280;63119;51.788;8.824;2022-11-20T06:04:48;99657.13;;;-4.79;79.31
74613;BME280;63119;51.788;8.824;2022-11-20T06:07:13;99651.06;;;-4.77;79.86
74613;BME280;63119;51.788;8.824;2022-11-20T06:09:38;99651.81;;;-4.66;79.95
74613;BME280;63119;51.788;8.824;2022-11-20T06:12:04;99648.28;;;-4.57;79.22
74613;BME280;63119;51.788;8.824;2022-11-20T06:14:29;99651.81;;;-4.66;79.14
74613;BME280;63119;51.788;8.824;2022-11-20T06:16:55;99650.06;;;-4.62;79.67
74613;BME280;63119;51.788;8.824;2022-11-20T06:19:20;99644.97;;;-4.68;80.11
74613;BME280;63119;51.788;8.824;2022-11-20T06:21:47;99660.28;;;-4.55;79.87
74613;BME280;63119;51.788;8.824;2022-11-20T06:24:13;99653.28;;;-4.47;79.69
74613;BME280;63119;51.788;8.824;2022-11-20T06:26:38;99653.94;;;-4.31;79.74
74613;BME280;63119;51.788;8.824;2022-11-20T06:29:04;99661.59;;;-4.25;79.36
74613;BME280;63119;51.788;8.824;2022-11-20T06:31:29;99656.34;;;-4.19;78.99
74613;BME280;63119;51.788;8.824;2022-11-20T06:33:54;99659.69;;;-4.12;79.30
74613;BME280;63119;51.788;8.824;2022-11-20T06:36:22;99651.94;;;-4.12;79.26
74613;BME280;63119;51.788;8.824;2022-11-20T06:38:47;99649.53;;;-4.24;80.43
74613;BME280;63119;51.788;8.824;2022-11-20T06:41:15;99640.25;;;-4.37;81.02
74613;BME280;63119;51.788;8.824;2022-11-20T06:43:40;99642.75;;;-4.31;79.49
74613;BME280;63119;51.788;8.824;2022-11-20T06:46:06;99646.13;;;-4.26;79.47
74613;BME280;63119;51.788;8.824;2022-11-20T06:48:32;99640.03;;;-4.21;79.93
74613;BME280;63119;51.788;8.824;2022-11-20T06:50:57;99643.59;;;-4.29;80.06
74613;BME280;63119;51.788;8.824;2022-11-20T06:53:23;99637.38;;;-4.16;80.22
74613;BME280;63119;51.788;8.824;2022-11-20T06:55:50;99641.53;;;-4.05;80.02
74613;BME280;63119;51.788;8.824;2022-11-20T06:58:16;99643.13;;;-3.96;79.69
74613;BME280;63119;51.788;8.824;2022-11-20T07:00:42;99642.13;;;-3.89;79.79
74613;BME280;63119;51.788;8.824;2022-11-20T07:03:09;99645.09;;;-4.15;81.46
74613;BME280;63119;51.788;8.824;2022-11-20T07:05:35;99645.88;;;-4.08;80.61
74613;BME280;63119;51.788;8.824;2022-11-20T07:08:02;99644.88;;;-4.00;80.46
74613;BME280;63119;51.788;8.824;2022-11-20T07:10:27;99649.16;;;-3.97;80.30
74613;BME280;63119;51.788;8.824;2022-11-20T07:12:53;99652.69;;;-4.04;80.92
74613;BME280;63119;51.788;8.824;2022-11-20T07:15:20;99652.59;;;-3.98;80.44
74613;BME280;63119;51.788;8.824;2022-11-20T07:17:46;99658.63;;;-3.96;80.78
74613;BME280;63119;51.788;8.824;2022-11-20T07:20:15;99661.38;;;-4.08;82.09
74613;BME280;63119;51.788;8.824;2022-11-20T07:22:40;99664.63;;;-3.96;81.48
74613;BME280;63119;51.788;8.824;2022-11-20T07:25:06;99662.72;;;-3.83;81.19
74613;BME280;63119;51.788;8.824;2022-11-20T07:27:32;99666.09;;;-3.78;81.65
74613;BME280;63119;51.788;8.824;2022-11-20T07:29:57;99667.94;;;-3.86;83.00
74613;BME280;63119;51.788;8.824;2022-11-20T07:32:22;99677.25;;;-3.74;82.05
74613;BME280;63119;51.788;8.824;2022-11-20T07:34:48;99684.75;;;-3.61;81.90
74613;BME280;63119;51.788;8.824;2022-11-20T07:37:14;99679.28;;;-3.41;82.62
74613;BME280;63119;51.788;8.824;2022-11-20T07:39:39;99681.41;;;-3.15;84.58
74613;BME280;63119;51.788;8.824;2022-11-20T07:42:06;99676.38;;;-3.23;82.58
74613;BME280;63119;51.788;8.824;2022-11-20T07:44:31;99685.13;;;-3.30;82.30
74613;BME280;63119;51.788;8.824;2022-11-20T07:46:57;99686.75;;;-3.24;81.51
74613;BME280;63119;51.788;8.824;2022-11-20T07:49:22;99682.78;;;-2.96;84.73
74613;BME280;63119;51.788;8.824;2022-11-20T07:51:50;99683.03;;;-3.10;81.66
74613;BME280;63119;51.788;8.824;2022-11-20T07:54:15;99690.56;;;-2.96;82.55
74613;BME280;63119;51.788;8.824;2022-11-20T07:56:40;99683.66;;;-2.96;81.84
74613;BME280;63119;51.788;8.824;2022-11-20T07:59:05;99683.56;;;-2.91;82.15
74613;BME280;63119;51.788;8.824;2022-11-20T08:01:31;99680.31;;;-3.02;81.46
74613;BME280;63119;51.788;8.824;2022-11-20T08:03:56;99693.03;;;-2.92;81.85
74613;BME280;63119;51.788;8.824;2022-11-20T08:06:21;99688.50;;;-2.79;81.33
74613;BME280;63119;51.788;8.824;2022-11-20T08:08:47;99676.63;;;-2.89;82.48
74613;BME280;63119;51.788;8.824;2022-11-20T08:11:12;99687.47;;;-2.70;82.02
74613;BME280;63119;51.788;8.824;2022-11-20T08:13:56;99673.56;;;-2.65;81.29
74613;BME280;63119;51.788;8.824;2022-11-20T08:16:36;99684.75;;;-2.63;80.92
74613;BME280;63119;51.788;8.824;2022-11-20T08:19:02;99685.84;;;-2.76;82.51
74613;BME280;63119;51.788;8.824;2022-11-20T08:21:27;99679.91;;;-2.81;82.19
74613;BME280;63119;51.788;8.824;2022-11-20T08:23:52;99684.28;;;-2.85;83.45
74613;BME280;63119;51.788;8.824;2022-11-20T08:26:17;99684.06;;;-2.72;82.61
74613;BME280;63119;51.788;8.824;2022-11-20T08:28:43;99682.09;;;-2.61;83.80
74613;BME280;63119;51.788;8.824;2022-11-20T08:31:09;99673.44;;;-2.59;82.82
74613;BME280;63119;51.788;8.824;2022-11-20T08:33:34;99687.00;;;-2.46;82.85
74613;BME280;63119;51.788;8.824;2022-11-20T08:36:04;99672.22;;;-2.43;82.01
74613;BME280;63119;51.788;8.824;2022-11-20T08:38:30;99675.59;;;-2.38;82.60
74613;BME280;63119;51.788;8.824;2022-11-20T08:41:03;99677.22;;;-2.34;83.33
74613;BME280;63119;51.788;8.824;2022-11-20T08:43:47;99686.63;;;-2.28;82.72
74613;BME280;63119;51.788;8.824;2022-11-20T08:46:12;99685.53;;;-2.18;82.45
74613;BME280;63119;51.788;8.824;2022-11-20T08:48:38;99681.13;;;-2.14;82.03
74613;BME280;63119;51.788;8.824;2022-11-20T08:51:03;99688.19;;;-2.19;82.30
74613;BME280;63119;51.788;8.824;2022-11-20T08:53:28;99676.13;;;-2.22;81.85
74613;BME280;63119;51.788;8.824;2022-11-20T08:55:54;99676.75;;;-2.12;82.19
74613;BME280;63119;51.788;8.824;2022-11-20T08:58:19;99681.88;;;-2.09;82.35
74613;BME280;63119;51.788;8.824;2022-11-20T09:00:45;99681.06;;;-2.10;82.52
74613;BME280;63119;51.788;8.824;2022-11-20T09:03:10;99676.47;;;-1.99;82.51
74613;BME280;63119;51.788;8.824;2022-11-20T09:05:35;99682.72;;;-2.07;83.47
74613;BME280;63119;51.788;8.824;2022-11-20T09:08:00;99688.59;;;-1.99;82.75
74613;BME280;63119;51.788;8.824;2022-11-20T09:10:26;99685.91;;;-1.96;83.08
74613;BME280;63119;51.788;8.824;2022-11-20T09:12:52;99696.28;;;-1.96;83.86
74613;BME280;63119;51.788;8.824;2022-11-20T09:15:18;99684.91;;;-1.89;83.88
74613;BME280;63119;51.788;8.824;2022-11-20T09:17:54;99690.03;;;-1.86;84.25
74613;BME280;63119;51.788;8.824;2022-11-20T09:20:19;99687.38;;;-1.83;84.25
74613;BME280;63119;51.788;8.824;2022-11-20T09:22:45;99678.53;;;-1.76;84.89
74613;BME280;63119;51.788;8.824;2022-11-20T09:25:10;99682.75;;;-1.71;84.75
74613;BME280;63119;51.788;8.824;2022-11-20T09:27:35;99685.28;;;-1.68;84.55
74613;BME280;63119;51.788;8.824;2022-11-20T09:30:01;99686.03;;;-1.64;84.47
74613;BME280;63119;51.788;8.824;2022-11-20T09:32:27;99675.91;;;-1.38;84.47
74613;BME280;63119;51.788;8.824;2022-11-20T09:34:52;99664.84;;;-1.46;84.21
74613;BME280;63119;51.788;8.824;2022-11-20T09:37:17;99666.78;;;-1.54;84.62
74613;BME280;63119;51.788;8.824;2022-11-20T09:39:43;99672.31;;;-1.69;85.93
74613;BME280;63119;51.788;8.824;2022-11-20T09:48:14;99665.06;;;-1.55;85.53
74613;BME280;63119;51.788;8.824;2022-11-20T09:50:49;99662.53;;;-1.58;86.17
74613;BME280;63119;51.788;8.824;2022-11-20T09:55:48;99654.69;;;-1.55;86.39
74613;BME280;63119;51.788;8.824;2022-11-20T09:58:33;99657.19;;;-1.52;85.59
74613;BME280;63119;51.788;8.824;2022-11-20T10:01:09;99646.81;;;-1.52;86.23
74613;BME280;63119;51.788;8.824;2022-11-20T10:03:41;99649.94;;;-1.38;85.95
74613;BME280;63119;51.788;8.824;2022-11-20T10:06:14;99646.97;;;-1.23;86.11
74613;BME280;63119;51.788;8.824;2022-11-20T10:14:50;99656.16;;;-1.09;85.41
74613;BME280;63119;51.788;8.824;2022-11-20T10:26:16;99629.03;;;-0.10;82.45
74613;BME280;63119;51.788;8.824;2022-11-20T10:31:39;99629.91;;;0.44;80.53
74613;BME280;63119;51.788;8.824;2022-11-20T10:34:31;99622.81;;;0.99;82.16
74613;BME280;63119;51.788;8.824;2022-11-20T10:37:00;99617.28;;;1.08;77.58
74613;BME280;63119;51.788;8.824;2022-11-20T10:42:15;99607.44;;;1.62;77.65
74613;BME280;63119;51.788;8.824;2022-11-20T10:44:47;99603.31;;;2.24;75.78
74613;BME280;63119;51.788;8.824;2022-11-20T10:47:30;99600.50;;;2.70;74.57
74613;BME280;63119;51.788;8.824;2022-11-20T10:50:00;99590.81;;;2.92;74.29
74613;BME280;63119;51.788;8.824;2022-11-20T10:55:30;99592.44;;;3.15;72.20
74613;BME280;63119;51.788;8.824;2022-11-20T10:58:04;99588.22;;;3.12;70.39
74613;BME280;63119;51.788;8.824;2022-11-20T11:00:34;99576.13;;;3.10;71.33
74613;BME280;63119;51.788;8.824;2022-11-20T11:02:59;99575.03;;;2.75;70.40
74613;BME280;63119;51.788;8.824;2022-11-20T11:05:36;99572.94;;;3.03;72.74
74613;BME280;63119;51.788;8.824;2022-11-20T11:08:08;99562.28;;;3.26;71.15
74613;BME280;63119;51.788;8.824;2022-11-20T11:10:54;99561.97;;;3.34;70.26
74613;BME280;63119;51.788;8.824;2022-11-20T11:13:24;99567.81;;;3.20;70.89
74613;BME280;63119;51.788;8.824;2022-11-20T11:15:50;99568.72;;;3.19;70.77
74613;BME280;63119;51.788;8.824;2022-11-20T11:18:24;99553.56;;;2.89;72.09
74613;BME280;63119;51.788;8.824;2022-11-20T11:20:51;99551.97;;;3.23;71.21
74613;BME280;63119;51.788;8.824;2022-11-20T11:25:59;99547.84;;;3.93;69.91
74613;BME280;63119;51.788;8.824;2022-11-20T11:28:26;99547.66;;;4.14;69.95
74613;BME280;63119;51.788;8.824;2022-11-20T11:30:53;99537.91;;;4.18;68.33
74613;BME280;63119;51.788;8.824;2022-11-20T11:33:21;99532.66;;;4.35;69.22
74613;BME280;63119;51.788;8.824;2022-11-20T11:35:51;99538.63;;;4.56;68.85
74613;BME280;63119;51.788;8.824;2022-11-20T11:40:54;99544.56;;;3.89;68.68
74613;BME280;63119;51.788;8.824;2022-11-20T11:43:22;99550.22;;;4.33;70.07
74613;BME280;63119;51.788;8.824;2022-11-20T11:46:33;99539.44;;;4.39;68.33
74613;BME280;63119;51.788;8.824;2022-11-20T11:51:31;99533.34;;;4.73;66.66
74613;BME280;63119;51.788;8.824;2022-11-20T11:53:59;99529.19;;;4.69;66.15
74613;BME280;63119;51.788;8.824;2022-11-20T11:56:26;99518.56;;;5.05;65.00
74613;BME280;63119;51.788;8.824;2022-11-20T11:58:56;99517.94;;;5.32;64.73
74613;BME280;63119;51.788;8.824;2022-11-20T12:01:39;99515.09;;;5.37;63.94
74613;BME280;63119;51.788;8.824;2022-11-20T12:07:00;99509.75;;;5.38;63.18
74613;BME280;63119;51.788;8.824;2022-11-20T12:09:34;99506.28;;;5.53;61.30
74613;BME280;63119;51.788;8.824;2022-11-20T12:12:08;99501.03;;;5.85;60.66
74613;BME280;63119;51.788;8.824;2022-11-20T12:14:37;99532.75;;;7.15;56.92
74613;BME280;63119;51.788;8.824;2022-11-20T12:17:04;99517.31;;;8.19;52.11
74613;BME280;63119;51.788;8.824;2022-11-20T12:19:31;99496.44;;;7.89;52.88
74613;BME280;63119;51.788;8.824;2022-11-20T12:30:19;99494.63;;;9.80;47.67
74613;BME280;63119;51.788;8.824;2022-11-20T12:33:00;99479.34;;;9.24;47.49
74613;BME280;63119;51.788;8.824;2022-11-20T12:36:07;99479.28;;;9.85;47.79
74613;BME280;63119;51.788;8.824;2022-11-20T12:44:57;99468.19;;;6.81;56.01
74613;BME280;63119;51.788;8.824;2022-11-20T12:51:08;99462.44;;;5.56;61.97
74613;BME280;63119;51.788;8.824;2022-11-20T12:54:11;99458.63;;;5.45;60.66
74613;BME280;63119;51.788;8.824;2022-11-20T12:56:55;99458.38;;;5.19;61.87
74613;BME280;63119;51.788;8.824;2022-11-20T12:59:44;99474.94;;;5.04;61.97
74613;BME280;63119;51.788;8.824;2022-11-20T13:02:37;99465.22;;;4.73;63.02
74613;BME280;63119;51.788;8.824;2022-11-20T13:08:02;99468.28;;;3.97;62.82
74613;BME280;63119;51.788;8.824;2022-11-20T13:10:43;99480.19;;;3.85;64.11
74613;BME280;63119;51.788;8.824;2022-11-20T13:13:42;99475.00;;;3.66;64.41
74613;BME280;63119;51.788;8.824;2022-11-20T13:18:39;99464.50;;;3.85;66.36
74613;BME280;63119;51.788;8.824;2022-11-20T13:21:40;99454.03;;;3.85;65.75
74613;BME280;63119;51.788;8.824;2022-11-20T13:26:31;99444.44;;;3.67;65.81
74613;BME280;63119;51.788;8.824;2022-11-20T13:29:07;99437.22;;;3.72;66.68
74613;BME280;63119;51.788;8.824;2022-11-20T13:31:35;99431.53;;;3.81;66.46
74613;BME280;63119;51.788;8.824;2022-11-20T13:34:04;99434.47;;;3.92;66.58
74613;BME280;63119;51.788;8.824;2022-11-20T13:36:30;99424.94;;;3.91;65.45
74613;BME280;63119;51.788;8.824;2022-11-20T13:38:57;99425.44;;;3.80;65.24
74613;BME280;63119;51.788;8.824;2022-11-20T13:44:05;99429.22;;;3.75;64.56
74613;BME280;63119;51.788;8.824;2022-11-20T13:46:45;99429.19;;;3.58;64.77
74613;BME280;63119;51.788;8.824;2022-11-20T13:49:25;99428.34;;;3.57;65.59
74613;BME280;63119;51.788;8.824;2022-11-20T13:51:57;99428.19;;;3.43;65.77
74613;BME280;63119;51.788;8.824;2022-11-20T13:54:43;99422.59;;;3.32;65.18
74613;BME280;63119;51.788;8.824;2022-11-20T13:57:39;99413.09;;;3.48;63.87
74613;BME280;63119;51.788;8.824;2022-11-20T14:02:37;99405.38;;;3.28;63.03
74613;BME280;63119;51.788;8.824;2022-11-20T14:05:04;99409.13;;;3.04;65.02
74613;BME280;63119;51.788;8.824;2022-11-20T14:07:37;99399.03;;;2.96;64.47
74613;BME280;63119;51.788;8.824;2022-11-20T14:10:05;99393.31;;;2.88;64.33
74613;BME280;63119;51.788;8.824;2022-11-20T14:12:32;99386.19;;;2.73;65.35
74613;BME280;63119;51.788;8.824;2022-11-20T14:14:59;99380.53;;;2.82;66.12
74613;BME280;63119;51.788;8.824;2022-11-20T14:17:33;99377.69;;;2.68;66.39
74613;BME280;63119;51.788;8.824;2022-11-20T14:20:14;99376.16;;;2.64;66.39
74613;BME280;63119;51.788;8.824;2022-11-20T14:22:48;99380.09;;;2.54;67.89
74613;BME280;63119;51.788;8.824;2022-11-20T14:27:41;99370.13;;;2.43;68.34
74613;BME280;63119;51.788;8.824;2022-11-20T14:30:21;99361.03;;;2.52;68.79